Time;durP1;ratioP1;P1;durP2;ratioP2;P2;SDS_P1;SDS_P2;PMS_P1;PMS_P2;Temp;Humidity;BMP_temperature;BMP_pressure;BME280_temperature;BME280_humidity;BME280_pressure;Samples;Min_cycle;Max_cycle;Signal;HPM_P1;HPM_P2
2023/01/30 00:01:41;;;;;;;17.90;10.43;;;;;;;;;;5052679;28;20772;-81
2023/01/30 00:04:08;;;;;;;30.40;13.73;;;;;;;;;;5052214;28;20712;-81
2023/01/30 00:06:35;;;;;;;28.27;12.40;;;;;;;;;;5062881;28;20274;-82
2023/01/30 00:09:04;;;;;;;26.07;13.00;;;;;;;;;;5070836;28;20608;-82
2023/01/30 00:11:32;;;;;;;22.53;11.03;;;;;;;;;;5059840;28;20221;-82
2023/01/30 00:14:00;;;;;;;29.03;11.53;;;;;;;;;;5051213;28;20217;-81
2023/01/30 00:16:28;;;;;;;19.07;11.73;;;;;;;;;;5051829;28;20604;-82
2023/01/30 00:18:55;;;;;;;22.50;13.50;;;;;;;;;;5051288;28;20287;-82
2023/01/30 00:21:22;;;;;;;20.10;11.80;;;;;;;;;;5062563;28;20231;-82
2023/01/30 00:23:49;;;;;;;22.47;11.83;;;;;;;;;;5053420;28;20650;-82
2023/01/30 00:26:18;;;;;;;21.03;11.07;;;;;;;;;;5063395;28;20211;-81
2023/01/30 00:28:45;;;;;;;35.80;15.07;;;;;;;;;;5052495;28;20233;-82
2023/01/30 00:31:11;;;;;;;23.63;12.37;;;;;;;;;;5050746;28;20206;-81
2023/01/30 00:33:38;;;;;;;18.33;10.87;;;;;;;;;;5051845;28;20592;-81
2023/01/30 00:36:06;;;;;;;14.77;10.07;;;;;;;;;;5051655;28;20273;-82
2023/01/30 00:38:33;;;;;;;20.07;12.50;;;;;;;;;;5038681;28;20210;-81
2023/01/30 00:41:00;;;;;;;19.00;11.67;;;;;;;;;;5051325;28;20213;-82
2023/01/30 00:49:00;;;;;;;22.27;12.20;;;;;;;;;;5064591;28;20253;-81
2023/01/30 00:51:28;;;;;;;18.97;12.17;;;;;;;;;;5051107;28;20209;-82
2023/01/30 00:53:54;;;;;;;16.63;10.17;;;;;;;;;;5050474;28;20225;-82
2023/01/30 00:56:22;;;;;;;19.13;12.13;;;;;;;;;;5038488;28;20209;-82
2023/01/30 00:58:50;;;;;;;19.17;11.97;;;;;;;;;;5063225;28;20267;-82
2023/01/30 01:01:17;;;;;;;20.67;13.30;;;;;;;;;;5057529;28;20244;-82
2023/01/30 01:03:44;;;;;;;23.10;12.07;;;;;;;;;;5056857;28;20244;-82
2023/01/30 01:06:11;;;;;;;21.30;11.40;;;;;;;;;;5051673;28;20594;-82
2023/01/30 01:08:38;;;;;;;24.63;13.30;;;;;;;;;;5051212;28;20205;-82
2023/01/30 01:11:05;;;;;;;18.77;11.83;;;;;;;;;;5042647;28;20245;-82
2023/01/30 01:13:33;;;;;;;21.17;11.63;;;;;;;;;;5045911;28;20239;-82
2023/01/30 01:16:02;;;;;;;23.03;13.17;;;;;;;;;;5062374;28;20214;-81
2023/01/30 01:18:29;;;;;;;16.77;10.73;;;;;;;;;;5050225;28;20205;-82
2023/01/30 01:20:56;;;;;;;18.63;12.50;;;;;;;;;;5042459;28;20263;-81
2023/01/30 01:23:23;;;;;;;28.57;13.60;;;;;;;;;;5057060;28;20233;-82
2023/01/30 01:25:50;;;;;;;19.60;10.43;;;;;;;;;;5053495;28;20392;-82
2023/01/30 01:28:21;;;;;;;15.57;10.47;;;;;;;;;;5069356;28;20208;-82
2023/01/30 01:30:48;;;;;;;19.40;10.80;;;;;;;;;;5060274;28;20212;-82
2023/01/30 01:33:16;;;;;;;29.37;11.23;;;;;;;;;;5056804;28;20248;-82
2023/01/30 01:35:43;;;;;;;20.67;10.37;;;;;;;;;;5059336;28;20754;-81
2023/01/30 01:38:10;;;;;;;19.00;10.33;;;;;;;;;;5054985;28;20208;-82
2023/01/30 01:43:23;;;;;;;28.90;9.93;;;;;;;;;;5051119;28;20300;-82
2023/01/30 01:45:54;;;;;;;25.30;10.47;;;;;;;;;;5050776;28;20263;-82
2023/01/30 01:48:26;;;;;;;23.17;11.27;;;;;;;;;;5083594;28;20267;-82
2023/01/30 01:50:57;;;;;;;52.53;11.37;;;;;;;;;;5064400;28;20669;-82
2023/01/30 01:53:29;;;;;;;48.37;9.90;;;;;;;;;;5051269;28;20202;-82
2023/01/30 01:55:57;;;;;;;80.33;12.97;;;;;;;;;;5064578;28;20209;-81
2023/01/30 01:58:27;;;;;;;81.73;10.83;;;;;;;;;;5050976;28;20255;-82
2023/01/30 02:00:55;;;;;;;47.60;10.47;;;;;;;;;;5053403;28;20209;-81
2023/01/30 02:03:25;;;;;;;74.43;10.37;;;;;;;;;;5059819;28;20644;-82
2023/01/30 02:05:56;;;;;;;52.57;7.33;;;;;;;;;;5050685;28;20218;-82
2023/01/30 02:08:25;;;;;;;58.80;10.03;;;;;;;;;;5050863;28;20209;-81
2023/01/30 02:10:57;;;;;;;51.70;8.93;;;;;;;;;;5068631;28;20201;-82
2023/01/30 02:13:24;;;;;;;64.33;9.00;;;;;;;;;;5058017;28;20217;-81
2023/01/30 02:15:52;;;;;;;53.17;9.33;;;;;;;;;;5030988;28;20264;-82
2023/01/30 02:18:19;;;;;;;59.47;9.67;;;;;;;;;;5044117;28;20700;-83
2023/01/30 02:20:57;;;;;;;50.47;8.97;;;;;;;;;;5051057;28;20269;-82
2023/01/30 02:24:09;;;;;;;103.33;10.47;;;;;;;;;;5050221;28;20221;-81
2023/01/30 02:27:14;;;;;;;84.70;10.13;;;;;;;;;;5008489;28;20280;-82
2023/01/30 02:30:23;;;;;;;76.50;10.43;;;;;;;;;;4987409;28;20679;-82
2023/01/30 02:33:00;;;;;;;46.47;6.97;;;;;;;;;;5062771;28;20565;-82
2023/01/30 02:35:33;;;;;;;41.87;7.83;;;;;;;;;;5042245;28;20210;-81
2023/01/30 02:38:09;;;;;;;42.40;8.63;;;;;;;;;;5068461;28;20226;-82
2023/01/30 02:40:42;;;;;;;27.17;7.90;;;;;;;;;;5073036;28;20212;-81
2023/01/30 02:43:18;;;;;;;47.43;7.47;;;;;;;;;;5068940;28;20280;-82
2023/01/30 02:45:53;;;;;;;30.57;7.13;;;;;;;;;;5053850;28;20689;-81
2023/01/30 02:48:25;;;;;;;38.70;7.43;;;;;;;;;;5033126;28;20253;-82
2023/01/30 02:50:56;;;;;;;19.17;7.27;;;;;;;;;;5049979;28;20247;-82
2023/01/30 02:53:23;;;;;;;33.30;8.20;;;;;;;;;;5063249;28;20210;-82
2023/01/30 02:55:49;;;;;;;25.13;7.17;;;;;;;;;;5053469;28;20213;-82
2023/01/30 02:58:19;;;;;;;16.43;7.53;;;;;;;;;;5063445;28;20205;-82
2023/01/30 03:01:02;;;;;;;17.50;6.80;;;;;;;;;;5070849;28;20316;-82
2023/01/30 03:03:50;;;;;;;19.27;7.13;;;;;;;;;;5054002;28;20292;-82
2023/01/30 03:06:28;;;;;;;8.67;7.03;;;;;;;;;;5062583;28;20204;-82
2023/01/30 03:09:03;;;;;;;11.33;7.27;;;;;;;;;;5060123;28;20726;-82
2023/01/30 03:11:36;;;;;;;20.90;8.30;;;;;;;;;;5072411;28;20211;-82
2023/01/30 03:14:08;;;;;;;20.37;8.23;;;;;;;;;;5066158;28;20213;-81
2023/01/30 03:16:37;;;;;;;22.17;7.83;;;;;;;;;;5052329;28;20217;-83
2023/01/30 03:19:07;;;;;;;17.13;9.10;;;;;;;;;;5040585;28;20213;-82
2023/01/30 03:21:34;;;;;;;17.40;9.20;;;;;;;;;;5053244;28;20198;-82
2023/01/30 03:24:00;;;;;;;17.40;7.70;;;;;;;;;;5053558;28;20225;-82
2023/01/30 03:26:30;;;;;;;20.10;7.77;;;;;;;;;;5054466;28;20209;-82
2023/01/30 03:28:57;;;;;;;13.23;8.43;;;;;;;;;;5047430;28;20209;-82
2023/01/30 03:31:24;;;;;;;16.00;9.10;;;;;;;;;;5053069;28;20197;-83
2023/01/30 03:33:51;;;;;;;18.40;7.87;;;;;;;;;;5053610;28;20209;-82
2023/01/30 03:36:19;;;;;;;18.03;8.77;;;;;;;;;;5052918;28;20210;-82
2023/01/30 03:38:46;;;;;;;16.13;10.10;;;;;;;;;;5061968;28;20209;-82
2023/01/30 03:41:13;;;;;;;19.10;10.57;;;;;;;;;;5057029;28;20645;-82
2023/01/30 03:43:40;;;;;;;16.97;8.20;;;;;;;;;;5052878;28;20230;-82
2023/01/30 03:46:06;;;;;;;11.43;8.63;;;;;;;;;;5052069;28;20591;-82
2023/01/30 03:48:33;;;;;;;18.10;8.50;;;;;;;;;;5044067;28;20207;-82
2023/01/30 03:51:00;;;;;;;17.20;8.70;;;;;;;;;;5048437;28;20712;-82
2023/01/30 03:53:28;;;;;;;20.57;9.57;;;;;;;;;;5052689;28;20202;-82
2023/01/30 03:55:55;;;;;;;20.80;13.37;;;;;;;;;;5054368;28;20593;-83
2023/01/30 03:58:22;;;;;;;15.20;9.50;;;;;;;;;;5062413;28;20209;-82
2023/01/30 04:00:49;;;;;;;16.37;7.63;;;;;;;;;;5052872;28;20210;-82
2023/01/30 04:03:15;;;;;;;20.07;9.93;;;;;;;;;;5052684;28;20743;-82
2023/01/30 04:05:42;;;;;;;17.57;11.20;;;;;;;;;;5069791;28;20204;-81
2023/01/30 04:08:10;;;;;;;15.93;11.17;;;;;;;;;;5071906;28;20636;-82
2023/01/30 04:10:54;;;;;;;26.90;15.37;;;;;;;;;;5053468;28;20217;-82
2023/01/30 04:13:21;;;;;;;11.63;7.67;;;;;;;;;;5066215;28;20213;-83
2023/01/30 04:15:48;;;;;;;14.50;10.70;;;;;;;;;;5063891;28;20209;-82
2023/01/30 04:18:15;;;;;;;12.20;7.47;;;;;;;;;;5053156;28;20689;-82
2023/01/30 04:20:42;;;;;;;10.57;8.07;;;;;;;;;;5071617;28;20228;-82
2023/01/30 04:23:09;;;;;;;15.23;9.60;;;;;;;;;;5057331;28;20271;-83
2023/01/30 04:25:35;;;;;;;11.40;8.97;;;;;;;;;;5052030;28;20723;-82
2023/01/30 04:28:04;;;;;;;12.37;7.57;;;;;;;;;;5065438;28;20208;-83
2023/01/30 04:30:31;;;;;;;12.40;9.27;;;;;;;;;;5058940;28;20244;-83
2023/01/30 04:32:58;;;;;;;13.60;10.77;;;;;;;;;;5056922;28;20213;-83
2023/01/30 04:35:25;;;;;;;16.33;11.33;;;;;;;;;;5058954;28;20205;-83
2023/01/30 04:37:52;;;;;;;13.00;10.83;;;;;;;;;;5070194;28;20193;-82
2023/01/30 04:40:19;;;;;;;16.43;11.60;;;;;;;;;;5060760;28;20212;-83
2023/01/30 04:42:45;;;;;;;11.97;9.43;;;;;;;;;;5056702;28;20210;-83
2023/01/30 04:45:15;;;;;;;21.73;15.87;;;;;;;;;;5056882;28;20232;-83
2023/01/30 04:47:41;;;;;;;31.77;21.43;;;;;;;;;;5057814;28;20264;-83
2023/01/30 04:50:11;;;;;;;24.03;18.40;;;;;;;;;;5070851;28;20213;-82
2023/01/30 04:52:38;;;;;;;19.23;13.97;;;;;;;;;;5056362;28;20206;-84
2023/01/30 04:55:06;;;;;;;27.33;22.40;;;;;;;;;;5059823;28;20217;-83
2023/01/30 04:57:33;;;;;;;15.37;11.60;;;;;;;;;;5052515;28;20725;-83
2023/01/30 05:00:00;;;;;;;12.53;8.10;;;;;;;;;;5051302;28;20198;-82
2023/01/30 05:02:28;;;;;;;13.87;10.33;;;;;;;;;;5050201;28;20216;-86
2023/01/30 05:04:56;;;;;;;15.47;9.93;;;;;;;;;;5038995;28;20296;-80
2023/01/30 05:07:22;;;;;;;12.13;9.33;;;;;;;;;;5050903;28;20675;-83
2023/01/30 05:09:50;;;;;;;13.17;8.73;;;;;;;;;;5051435;28;20209;-83
2023/01/30 05:12:17;;;;;;;12.30;9.33;;;;;;;;;;5048571;28;20201;-83
2023/01/30 05:14:45;;;;;;;11.83;9.10;;;;;;;;;;5050676;28;20210;-83
2023/01/30 05:17:12;;;;;;;8.60;7.47;;;;;;;;;;5051951;28;20206;-83
2023/01/30 05:19:40;;;;;;;7.93;7.10;;;;;;;;;;5061467;28;20214;-83
2023/01/30 05:22:07;;;;;;;10.30;7.83;;;;;;;;;;5049095;28;20681;-84
2023/01/30 05:24:33;;;;;;;9.13;7.20;;;;;;;;;;5050623;28;20225;-84
2023/01/30 05:27:00;;;;;;;7.87;6.60;;;;;;;;;;5050726;28;20209;-83
2023/01/30 05:29:27;;;;;;;8.93;6.87;;;;;;;;;;5051080;28;20206;-83
2023/01/30 05:31:54;;;;;;;12.20;7.57;;;;;;;;;;5051182;28;20201;-83
2023/01/30 05:34:22;;;;;;;8.87;5.73;;;;;;;;;;5059606;28;20262;-83
2023/01/30 05:36:50;;;;;;;6.63;5.57;;;;;;;;;;5052397;28;20255;-82
2023/01/30 05:39:18;;;;;;;5.83;5.23;;;;;;;;;;5049627;28;20607;-83
2023/01/30 05:41:45;;;;;;;7.13;5.53;;;;;;;;;;5046848;28;20202;-82
2023/01/30 05:44:12;;;;;;;6.97;5.93;;;;;;;;;;5042524;28;20275;-82
2023/01/30 05:46:39;;;;;;;6.40;5.20;;;;;;;;;;5053405;28;20198;-83
2023/01/30 05:49:06;;;;;;;8.47;6.17;;;;;;;;;;5050843;28;20198;-83
2023/01/30 05:51:33;;;;;;;7.77;7.00;;;;;;;;;;5054016;28;20323;-83
2023/01/30 05:54:01;;;;;;;9.67;7.40;;;;;;;;;;5070396;28;20205;-84
2023/01/30 05:56:31;;;;;;;15.20;13.33;;;;;;;;;;5063074;28;20210;-84
2023/01/30 05:58:59;;;;;;;17.70;14.97;;;;;;;;;;5065484;28;20208;-84
2023/01/30 06:01:27;;;;;;;13.73;11.40;;;;;;;;;;5070400;28;20250;-83
2023/01/30 06:03:54;;;;;;;82.90;54.27;;;;;;;;;;5068365;28;20237;-83
2023/01/30 06:06:21;;;;;;;51.73;36.77;;;;;;;;;;5050892;28;20206;-83
2023/01/30 06:08:48;;;;;;;19.90;17.63;;;;;;;;;;5068255;28;20216;-82
2023/01/30 06:11:17;;;;;;;18.30;16.30;;;;;;;;;;5065144;28;20202;-83
2023/01/30 06:13:44;;;;;;;13.80;11.33;;;;;;;;;;5070937;28;20209;-83
2023/01/30 06:16:13;;;;;;;10.63;8.70;;;;;;;;;;5065064;28;20214;-83
2023/01/30 06:18:41;;;;;;;8.00;7.20;;;;;;;;;;5071739;28;20270;-83
2023/01/30 06:21:08;;;;;;;13.93;9.77;;;;;;;;;;5074361;28;20675;-82
2023/01/30 06:23:35;;;;;;;11.03;9.33;;;;;;;;;;5070251;28;20202;-83
2023/01/30 06:26:01;;;;;;;12.00;8.67;;;;;;;;;;5054531;28;20279;-83
2023/01/30 06:28:30;;;;;;;19.23;12.63;;;;;;;;;;5068449;28;20214;-83
2023/01/30 06:30:56;;;;;;;16.67;10.17;;;;;;;;;;5065765;28;20738;-83
2023/01/30 06:33:23;;;;;;;18.60;12.70;;;;;;;;;;5073824;28;20266;-83
2023/01/30 06:35:51;;;;;;;36.93;24.03;;;;;;;;;;5074118;28;20209;-83
2023/01/30 06:38:19;;;;;;;15.37;12.07;;;;;;;;;;5060676;28;20270;-84
2023/01/30 06:40:47;;;;;;;10.53;9.43;;;;;;;;;;5061943;28;20198;-82
2023/01/30 06:43:14;;;;;;;9.90;7.93;;;;;;;;;;5054143;28;20197;-83
2023/01/30 06:45:43;;;;;;;8.77;7.37;;;;;;;;;;5066746;28;20228;-83
2023/01/30 06:48:09;;;;;;;9.40;8.40;;;;;;;;;;5054443;28;20635;-83
2023/01/30 06:50:36;;;;;;;6.97;6.13;;;;;;;;;;5067741;28;20209;-83
2023/01/30 06:53:05;;;;;;;11.53;8.50;;;;;;;;;;5040699;28;20692;-83
2023/01/30 06:55:33;;;;;;;10.33;6.57;;;;;;;;;;5053944;28;20202;-84
2023/01/30 06:58:05;;;;;;;7.40;6.40;;;;;;;;;;5053652;28;20782;-87
2023/01/30 07:00:32;;;;;;;9.97;6.43;;;;;;;;;;5054562;28;20210;-83
2023/01/30 07:03:01;;;;;;;8.23;6.83;;;;;;;;;;5066249;28;20202;-83
2023/01/30 07:05:28;;;;;;;9.03;6.97;;;;;;;;;;5053774;28;20225;-82
2023/01/30 07:07:55;;;;;;;9.67;7.70;;;;;;;;;;5054037;28;20591;-83
2023/01/30 07:10:22;;;;;;;9.03;6.83;;;;;;;;;;5066847;28;20216;-83
2023/01/30 07:12:49;;;;;;;7.93;5.63;;;;;;;;;;5053851;28;20209;-84
2023/01/30 07:15:16;;;;;;;10.33;7.07;;;;;;;;;;5069266;28;20593;-83
2023/01/30 07:17:43;;;;;;;13.27;10.03;;;;;;;;;;5064371;28;20260;-84
2023/01/30 07:20:12;;;;;;;19.60;10.70;;;;;;;;;;5052729;28;20209;-84
2023/01/30 07:22:38;;;;;;;9.50;7.43;;;;;;;;;;5063107;28;20216;-84
2023/01/30 07:25:06;;;;;;;9.73;6.77;;;;;;;;;;5069816;28;20716;-84
2023/01/30 07:27:33;;;;;;;8.27;6.07;;;;;;;;;;5053803;28;20643;-85
2023/01/30 07:30:00;;;;;;;15.70;7.30;;;;;;;;;;5056665;28;20205;-84
2023/01/30 07:32:27;;;;;;;8.73;7.20;;;;;;;;;;5063577;28;20209;-83
2023/01/30 07:34:54;;;;;;;10.23;7.33;;;;;;;;;;5056548;28;20742;-83
2023/01/30 07:37:22;;;;;;;10.60;6.90;;;;;;;;;;5072820;28;20205;-83
2023/01/30 07:39:49;;;;;;;9.57;7.53;;;;;;;;;;5059879;28;20205;-83
2023/01/30 07:42:17;;;;;;;8.20;6.37;;;;;;;;;;5062580;28;20210;-84
2023/01/30 07:44:44;;;;;;;8.83;6.30;;;;;;;;;;5053085;28;20234;-82
2023/01/30 07:47:10;;;;;;;8.50;7.10;;;;;;;;;;5052915;28;20198;-83
2023/01/30 07:49:37;;;;;;;9.23;6.40;;;;;;;;;;5057576;28;20212;-84
2023/01/30 07:52:04;;;;;;;7.33;6.00;;;;;;;;;;5072498;28;20222;-84
2023/01/30 07:54:32;;;;;;;8.43;6.50;;;;;;;;;;5059686;28;20572;-82
2023/01/30 07:56:59;;;;;;;9.50;7.43;;;;;;;;;;5072319;28;20205;-83
2023/01/30 07:59:26;;;;;;;8.70;6.27;;;;;;;;;;5059383;28;20201;-83
2023/01/30 08:01:53;;;;;;;6.60;5.63;;;;;;;;;;5060093;28;20296;-83
2023/01/30 08:04:20;;;;;;;9.47;6.30;;;;;;;;;;5058788;28;20997;-83
2023/01/30 08:06:47;;;;;;;7.97;6.30;;;;;;;;;;5072556;28;20216;-83
2023/01/30 08:09:13;;;;;;;9.00;6.83;;;;;;;;;;5066105;28;20696;-84
2023/01/30 08:11:41;;;;;;;7.17;5.57;;;;;;;;;;5052414;28;20268;-84
2023/01/30 08:14:08;;;;;;;8.33;7.07;;;;;;;;;;5065949;28;20762;-83
2023/01/30 08:16:35;;;;;;;7.50;5.70;;;;;;;;;;5052057;28;20210;-84
2023/01/30 08:19:04;;;;;;;9.57;6.87;;;;;;;;;;5059560;28;20236;-83
2023/01/30 08:21:31;;;;;;;8.73;7.80;;;;;;;;;;5059291;28;20209;-83
2023/01/30 08:23:58;;;;;;;11.43;8.40;;;;;;;;;;5072214;28;20216;-83
2023/01/30 08:26:25;;;;;;;13.37;10.03;;;;;;;;;;5057847;28;20233;-83
2023/01/30 08:28:54;;;;;;;14.77;13.27;;;;;;;;;;5052348;28;20224;-84
2023/01/30 08:31:21;;;;;;;11.43;8.13;;;;;;;;;;5067123;28;20630;-83
2023/01/30 08:33:48;;;;;;;64.40;42.47;;;;;;;;;;5064004;28;20218;-83
2023/01/30 08:36:15;;;;;;;26.87;18.97;;;;;;;;;;5065525;28;20209;-83
2023/01/30 08:38:41;;;;;;;9.90;7.00;;;;;;;;;;5052293;28;20259;-84
2023/01/30 08:41:08;;;;;;;31.20;18.53;;;;;;;;;;5051996;28;20209;-84
2023/01/30 08:43:35;;;;;;;22.17;14.80;;;;;;;;;;5052186;28;20206;-85
2023/01/30 08:46:04;;;;;;;61.83;35.17;;;;;;;;;;5052447;28;20226;-84
2023/01/30 08:48:31;;;;;;;14.20;10.23;;;;;;;;;;5051858;28;20205;-84
2023/01/30 08:50:58;;;;;;;10.10;7.33;;;;;;;;;;5065896;28;20213;-84
2023/01/30 08:53:25;;;;;;;38.73;24.13;;;;;;;;;;5061384;28;20200;-84
2023/01/30 08:55:52;;;;;;;27.80;19.80;;;;;;;;;;5071597;28;20209;-83
2023/01/30 08:58:19;;;;;;;9.90;7.53;;;;;;;;;;5061979;28;20296;-83
2023/01/30 09:00:45;;;;;;;47.00;29.27;;;;;;;;;;5055465;28;20278;-85
2023/01/30 09:03:14;;;;;;;16.30;11.30;;;;;;;;;;5061954;28;20336;-85
2023/01/30 09:05:41;;;;;;;10.10;7.70;;;;;;;;;;5051937;28;20229;-84
2023/01/30 09:08:08;;;;;;;9.80;7.43;;;;;;;;;;5062414;28;20216;-86
2023/01/30 09:10:35;;;;;;;16.73;11.73;;;;;;;;;;5054103;28;20208;-84
2023/01/30 09:13:02;;;;;;;37.73;24.60;;;;;;;;;;5051623;28;20260;-84
2023/01/30 09:15:28;;;;;;;23.60;16.33;;;;;;;;;;5065043;28;20287;-86
2023/01/30 09:17:55;;;;;;;8.40;6.90;;;;;;;;;;5051820;28;20225;-84
2023/01/30 09:20:24;;;;;;;9.90;8.13;;;;;;;;;;5055773;28;20657;-84
2023/01/30 09:22:51;;;;;;;15.77;11.93;;;;;;;;;;5059528;28;20206;-85
2023/01/30 09:25:18;;;;;;;10.30;7.23;;;;;;;;;;5056638;28;20225;-85
2023/01/30 09:27:48;;;;;;;8.60;6.70;;;;;;;;;;5059220;28;20771;-85
2023/01/30 09:30:15;;;;;;;13.00;10.67;;;;;;;;;;5051496;28;20205;-85
2023/01/30 09:32:42;;;;;;;10.63;8.77;;;;;;;;;;5051472;28;20264;-85
2023/01/30 09:35:09;;;;;;;14.63;10.63;;;;;;;;;;5051280;28;20571;-86
2023/01/30 09:37:37;;;;;;;13.03;11.47;;;;;;;;;;5051867;28;20213;-84
2023/01/30 09:40:05;;;;;;;14.73;10.40;;;;;;;;;;5057558;28;20282;-85
2023/01/30 09:43:02;;;;;;;12.53;9.87;;;;;;;;;;5057750;28;20210;-86
2023/01/30 09:45:45;;;;;;;25.87;18.20;;;;;;;;;;5057135;28;20727;-86
2023/01/30 09:48:16;;;;;;;17.63;12.73;;;;;;;;;;5048522;28;20208;-86
2023/01/30 09:51:02;;;;;;;27.17;17.60;;;;;;;;;;5061944;28;20585;-85
2023/01/30 09:53:37;;;;;;;29.27;18.80;;;;;;;;;;5064885;28;20212;-86
2023/01/30 09:56:04;;;;;;;100.93;50.20;;;;;;;;;;5070711;28;20217;-85
2023/01/30 09:58:40;;;;;;;51.33;28.90;;;;;;;;;;5066916;28;20209;-86
2023/01/30 10:01:11;;;;;;;37.80;26.10;;;;;;;;;;5069199;28;20214;-85
2023/01/30 10:03:46;;;;;;;60.33;35.13;;;;;;;;;;5068576;28;20695;-85
2023/01/30 10:06:15;;;;;;;63.43;35.83;;;;;;;;;;5055223;28;20599;-86
2023/01/30 10:08:50;;;;;;;19.27;13.63;;;;;;;;;;5057282;28;20315;-86
2023/01/30 10:11:24;;;;;;;22.53;16.93;;;;;;;;;;5065137;28;20213;-85
2023/01/30 10:14:08;;;;;;;14.47;11.37;;;;;;;;;;5072770;28;20687;-85
2023/01/30 10:16:40;;;;;;;12.93;11.30;;;;;;;;;;5074336;28;20205;-84
2023/01/30 10:19:37;;;;;;;12.23;9.63;;;;;;;;;;5062973;28;20699;-84
2023/01/30 10:22:15;;;;;;;13.53;10.47;;;;;;;;;;5056051;28;20206;-86
2023/01/30 10:24:51;;;;;;;13.87;11.23;;;;;;;;;;5068258;28;20205;-85
2023/01/30 10:27:18;;;;;;;14.87;11.23;;;;;;;;;;5054858;28;20639;-85
2023/01/30 10:29:47;;;;;;;17.90;12.10;;;;;;;;;;5067838;28;20209;-84
2023/01/30 10:32:16;;;;;;;15.87;11.00;;;;;;;;;;5054809;28;20232;-84
2023/01/30 10:34:47;;;;;;;12.47;9.03;;;;;;;;;;5054358;28;20703;-85
2023/01/30 10:37:19;;;;;;;12.93;10.50;;;;;;;;;;5054842;28;20206;-84
2023/01/30 10:39:52;;;;;;;13.33;10.77;;;;;;;;;;5054281;28;20656;-85
2023/01/30 10:42:24;;;;;;;11.10;8.17;;;;;;;;;;5054187;28;20217;-84
2023/01/30 10:44:51;;;;;;;11.93;10.43;;;;;;;;;;5073645;28;20204;-84
2023/01/30 10:47:36;;;;;;;13.17;11.00;;;;;;;;;;5061265;28;20229;-84
2023/01/30 10:50:14;;;;;;;23.83;18.23;;;;;;;;;;5063527;28;20671;-85
2023/01/30 10:52:46;;;;;;;45.53;25.80;;;;;;;;;;5071012;28;20252;-85
2023/01/30 10:55:20;;;;;;;56.33;35.37;;;;;;;;;;5064910;28;20201;-84
2023/01/30 10:57:55;;;;;;;24.53;16.23;;;;;;;;;;5055460;28;20239;-84
2023/01/30 11:00:28;;;;;;;18.80;13.60;;;;;;;;;;5067458;28;20213;-85
2023/01/30 11:03:08;;;;;;;11.43;9.57;;;;;;;;;;5066443;28;20205;-84
2023/01/30 11:05:42;;;;;;;18.10;12.00;;;;;;;;;;5071053;28;20204;-84
2023/01/30 11:08:15;;;;;;;17.20;9.47;;;;;;;;;;5063075;28;20275;-85
2023/01/30 11:10:44;;;;;;;12.90;10.53;;;;;;;;;;5067344;28;20213;-85
2023/01/30 11:13:14;;;;;;;14.43;11.20;;;;;;;;;;5053883;28;20205;-84
2023/01/30 11:15:42;;;;;;;15.10;10.57;;;;;;;;;;5040769;28;20217;-84
2023/01/30 11:18:09;;;;;;;10.20;8.47;;;;;;;;;;5053561;28;20210;-88
2023/01/30 11:20:40;;;;;;;12.80;10.17;;;;;;;;;;5060545;28;20209;-84
2023/01/30 11:23:11;;;;;;;11.10;9.27;;;;;;;;;;5059532;28;20205;-84
2023/01/30 11:25:49;;;;;;;11.13;8.00;;;;;;;;;;5062074;28;20680;-84
2023/01/30 11:28:18;;;;;;;10.43;9.37;;;;;;;;;;5073458;28;20213;-84
2023/01/30 11:30:49;;;;;;;12.53;11.10;;;;;;;;;;5063145;28;20271;-83
2023/01/30 11:33:20;;;;;;;12.53;10.13;;;;;;;;;;5057771;28;20205;-84
2023/01/30 11:35:53;;;;;;;12.90;11.00;;;;;;;;;;5061531;28;20202;-84
2023/01/30 11:38:23;;;;;;;13.47;10.33;;;;;;;;;;5053481;28;20238;-83
2023/01/30 11:41:01;;;;;;;12.80;11.00;;;;;;;;;;5053212;28;20283;-84
2023/01/30 11:43:28;;;;;;;14.10;11.73;;;;;;;;;;5049847;28;20209;-83
2023/01/30 11:45:55;;;;;;;16.27;12.00;;;;;;;;;;5058180;28;20240;-84
2023/01/30 11:48:26;;;;;;;15.60;11.10;;;;;;;;;;5061910;28;20631;-84
2023/01/30 11:50:56;;;;;;;9.43;8.07;;;;;;;;;;5059455;28;20762;-84
2023/01/30 11:53:29;;;;;;;9.93;8.77;;;;;;;;;;5072385;28;20259;-85
2023/01/30 11:56:04;;;;;;;14.70;11.13;;;;;;;;;;5055941;28;20213;-84
2023/01/30 11:58:31;;;;;;;11.03;9.63;;;;;;;;;;5053013;28;20209;-84
2023/01/30 12:00:59;;;;;;;12.37;9.57;;;;;;;;;;5053001;28;20252;-85
2023/01/30 12:03:28;;;;;;;14.20;10.93;;;;;;;;;;5052781;28;20229;-85
2023/01/30 12:05:55;;;;;;;8.47;7.53;;;;;;;;;;5071226;28;20202;-84
2023/01/30 12:08:27;;;;;;;18.67;13.00;;;;;;;;;;5060260;28;20268;-84
2023/01/30 12:10:57;;;;;;;49.00;35.87;;;;;;;;;;5058662;28;20213;-84
2023/01/30 12:13:30;;;;;;;22.77;15.87;;;;;;;;;;5072183;28;20292;-85
2023/01/30 12:16:11;;;;;;;26.43;18.13;;;;;;;;;;5053095;28;20225;-84
2023/01/30 12:18:44;;;;;;;24.23;16.73;;;;;;;;;;5055668;28;20205;-84
2023/01/30 12:21:18;;;;;;;29.70;21.17;;;;;;;;;;5072265;28;20646;-85
2023/01/30 12:23:50;;;;;;;27.03;19.90;;;;;;;;;;5058869;28;20192;-85
2023/01/30 12:26:20;;;;;;;36.13;26.23;;;;;;;;;;5059129;28;20705;-85
2023/01/30 12:28:54;;;;;;;32.97;22.33;;;;;;;;;;5065945;28;20241;-84
2023/01/30 12:31:24;;;;;;;8.43;6.80;;;;;;;;;;5066725;28;20692;-85
2023/01/30 12:33:53;;;;;;;12.57;10.27;;;;;;;;;;5063622;28;20370;-84
2023/01/30 12:36:26;;;;;;;116.53;53.13;;;;;;;;;;5052478;28;20209;-84
2023/01/30 12:39:06;;;;;;;22.13;14.20;;;;;;;;;;5062082;28;20209;-84
2023/01/30 12:41:47;;;;;;;17.67;13.20;;;;;;;;;;5053663;28;20213;-84
2023/01/30 12:44:25;;;;;;;33.27;19.50;;;;;;;;;;5065735;28;20212;-85
2023/01/30 12:47:01;;;;;;;45.10;24.07;;;;;;;;;;5051700;28;20218;-85
2023/01/30 12:49:51;;;;;;;44.83;24.10;;;;;;;;;;5048607;28;20332;-82
2023/01/30 12:52:38;;;;;;;58.53;32.37;;;;;;;;;;5043552;28;20224;-85
2023/01/30 12:55:15;;;;;;;87.77;44.67;;;;;;;;;;5061593;28;20211;-86
2023/01/30 12:57:46;;;;;;;79.93;45.40;;;;;;;;;;5058767;28;20208;-85
2023/01/30 13:00:30;;;;;;;39.20;24.90;;;;;;;;;;5071474;28;20209;-85
2023/01/30 13:03:16;;;;;;;41.93;27.70;;;;;;;;;;5039637;28;20220;-85
2023/01/30 13:05:45;;;;;;;47.83;28.97;;;;;;;;;;5055476;28;20239;-85
2023/01/30 13:08:33;;;;;;;25.17;17.23;;;;;;;;;;5071336;28;20228;-85
2023/01/30 13:11:07;;;;;;;16.37;14.13;;;;;;;;;;5046761;28;20208;-85
2023/01/30 13:13:41;;;;;;;21.47;14.97;;;;;;;;;;5056507;28;20209;-85
2023/01/30 13:16:16;;;;;;;15.23;13.63;;;;;;;;;;5051667;28;20200;-85
2023/01/30 13:18:46;;;;;;;33.93;26.03;;;;;;;;;;5064536;28;20239;-85
2023/01/30 13:21:16;;;;;;;17.53;12.97;;;;;;;;;;5063494;28;20350;-85
2023/01/30 13:23:49;;;;;;;15.43;12.77;;;;;;;;;;5058039;28;20688;-85
2023/01/30 13:26:19;;;;;;;14.33;10.90;;;;;;;;;;5058163;28;20263;-85
2023/01/30 13:28:48;;;;;;;15.87;12.40;;;;;;;;;;5038709;28;20758;-85
2023/01/30 13:31:18;;;;;;;10.97;9.87;;;;;;;;;;5051965;28;20217;-85
2023/01/30 13:33:47;;;;;;;16.27;13.47;;;;;;;;;;5071564;28;20205;-85
2023/01/30 13:36:16;;;;;;;39.57;27.70;;;;;;;;;;5069329;28;20698;-86
2023/01/30 13:38:51;;;;;;;43.43;26.50;;;;;;;;;;5060384;28;20205;-85
2023/01/30 13:41:19;;;;;;;31.37;21.00;;;;;;;;;;5058601;28;20258;-85
2023/01/30 13:43:50;;;;;;;21.53;13.97;;;;;;;;;;5062962;28;20296;-85
2023/01/30 13:46:23;;;;;;;35.50;21.73;;;;;;;;;;5070231;28;20204;-85
2023/01/30 13:48:58;;;;;;;33.27;20.50;;;;;;;;;;5060779;28;20214;-85
2023/01/30 13:51:39;;;;;;;47.17;28.63;;;;;;;;;;5052635;28;20213;-85
2023/01/30 13:54:11;;;;;;;20.77;14.23;;;;;;;;;;5054195;28;20209;-85
2023/01/30 13:56:41;;;;;;;19.33;12.47;;;;;;;;;;5072518;28;20200;-85
2023/01/30 13:59:15;;;;;;;17.50;14.87;;;;;;;;;;5071836;28;20205;-86
2023/01/30 14:02:21;;;;;;;13.90;10.47;;;;;;;;;;5072981;28;20197;-86
2023/01/30 14:04:52;;;;;;;14.00;12.37;;;;;;;;;;5072691;28;20243;-85
2023/01/30 14:07:23;;;;;;;12.67;9.43;;;;;;;;;;5058504;28;20237;-85
2023/01/30 14:10:01;;;;;;;11.80;9.77;;;;;;;;;;5071897;28;20578;-85
2023/01/30 14:12:32;;;;;;;13.37;11.43;;;;;;;;;;5052158;28;20212;-85
2023/01/30 14:15:01;;;;;;;11.53;10.00;;;;;;;;;;5064977;28;20208;-87
2023/01/30 14:17:30;;;;;;;18.53;14.20;;;;;;;;;;5051163;28;20198;-84
2023/01/30 14:20:02;;;;;;;20.77;15.53;;;;;;;;;;5065783;28;20572;-85
2023/01/30 14:22:34;;;;;;;16.27;13.13;;;;;;;;;;5071345;28;20201;-85
2023/01/30 14:25:43;;;;;;;20.70;16.77;;;;;;;;;;5056261;28;20273;-83
2023/01/30 14:28:50;;;;;;;21.60;13.97;;;;;;;;;;5051959;28;20274;-85
2023/01/30 14:31:50;;;;;;;18.53;13.73;;;;;;;;;;5055729;28;20209;-85
2023/01/30 14:35:02;;;;;;;14.80;12.43;;;;;;;;;;5063103;28;20237;-84
2023/01/30 14:37:49;;;;;;;13.63;11.83;;;;;;;;;;5054788;28;20217;-85
2023/01/30 14:40:36;;;;;;;61.57;45.50;;;;;;;;;;5042490;28;20232;-85
2023/01/30 14:43:40;;;;;;;43.07;30.87;;;;;;;;;;5059107;28;20254;-84
2023/01/30 14:46:12;;;;;;;44.63;35.63;;;;;;;;;;5057717;28;20209;-84
2023/01/30 14:48:42;;;;;;;49.90;35.53;;;;;;;;;;5065287;28;20251;-85
2023/01/30 14:51:18;;;;;;;36.23;28.03;;;;;;;;;;5055881;28;20213;-85
2023/01/30 14:53:54;;;;;;;19.43;14.43;;;;;;;;;;5054522;28;20263;-85